createdAt,value
2017-10-04T00:00:48.426Z,27.87
2017-10-04T00:03:15.987Z,28.73
2017-10-04T00:05:43.532Z,30.20
2017-10-04T00:08:11.126Z,31.53
2017-10-04T00:10:38.650Z,30.60
2017-10-04T00:13:06.162Z,32.30
2017-10-04T00:15:33.731Z,32.83
2017-10-04T00:18:01.325Z,32.73
2017-10-04T00:20:29.129Z,29.87
2017-10-04T00:22:56.691Z,32.80
2017-10-04T00:25:24.217Z,33.20
2017-10-04T00:27:51.743Z,34.20
2017-10-04T00:30:19.373Z,33.03
2017-10-04T00:32:46.900Z,40.17
2017-10-04T00:35:14.430Z,32.63
2017-10-04T00:37:41.984Z,32.87
2017-10-04T00:40:09.512Z,32.60
2017-10-04T00:42:37.270Z,32.40
2017-10-04T00:45:04.826Z,35.03
2017-10-04T00:47:33.011Z,34.97
2017-10-04T00:50:00.546Z,35.57
2017-10-04T00:52:28.127Z,29.67
2017-10-04T00:54:55.695Z,35.47
2017-10-04T00:57:23.459Z,39.40
2017-10-04T00:59:51.021Z,34.40
2017-10-04T01:02:18.613Z,32.00
2017-10-04T01:04:46.153Z,42.00
2017-10-04T01:07:13.927Z,34.17
2017-10-04T01:09:41.481Z,32.77
2017-10-04T01:12:09.005Z,34.67
2017-10-04T01:14:36.553Z,32.57
2017-10-04T01:17:04.107Z,34.73
2017-10-04T01:19:31.655Z,31.43
2017-10-04T01:21:59.218Z,34.73
2017-10-04T01:24:26.801Z,33.30
2017-10-04T01:26:54.358Z,33.73
2017-10-04T01:29:21.889Z,31.53
2017-10-04T01:31:49.461Z,32.03
2017-10-04T01:34:17.241Z,35.50
2017-10-04T01:36:44.802Z,35.40
2017-10-04T01:39:12.397Z,41.27
2017-10-04T01:41:39.931Z,37.33
2017-10-04T01:44:07.724Z,36.70
2017-10-04T01:46:35.493Z,36.47
2017-10-04T01:49:03.016Z,33.57
2017-10-04T01:51:30.547Z,38.73
2017-10-04T01:53:58.119Z,34.17
2017-10-04T01:56:25.636Z,30.63
2017-10-04T01:58:53.462Z,41.23
2017-10-04T02:01:21.033Z,36.17
2017-10-04T02:03:48.774Z,33.80
2017-10-04T02:06:16.581Z,33.23
2017-10-04T02:08:44.166Z,40.67
2017-10-04T02:11:11.689Z,31.80
2017-10-04T02:13:39.297Z,36.10
2017-10-04T02:16:07.791Z,36.57
2017-10-04T02:18:35.351Z,32.10
2017-10-04T02:21:02.894Z,32.80
2017-10-04T02:23:30.483Z,37.40
2017-10-04T02:25:58.012Z,34.20
2017-10-04T02:28:25.558Z,36.97
2017-10-04T02:30:53.128Z,34.00
2017-10-04T02:33:20.682Z,36.93
2017-10-04T02:35:48.246Z,35.80
2017-10-04T02:38:15.833Z,50.60
2017-10-04T02:40:43.360Z,41.70
2017-10-04T02:43:10.895Z,46.23
2017-10-04T02:45:38.479Z,40.60
2017-10-04T02:48:06.030Z,43.53
2017-10-04T02:50:33.775Z,45.13
2017-10-04T02:53:01.334Z,43.70
2017-10-04T02:55:28.860Z,46.60
2017-10-04T02:57:56.376Z,38.73
2017-10-04T03:00:23.969Z,44.27
2017-10-04T03:02:51.486Z,39.97
2017-10-04T03:05:19.024Z,42.07
2017-10-04T03:07:46.608Z,48.23
2017-10-04T03:10:14.129Z,41.53
2017-10-04T03:12:41.687Z,41.40
2017-10-04T03:15:09.264Z,43.03
2017-10-04T03:17:36.794Z,35.00
2017-10-04T03:20:04.315Z,40.87
2017-10-04T03:22:31.909Z,52.53
2017-10-04T03:24:59.432Z,40.90
2017-10-04T03:27:27.174Z,37.97
2017-10-04T03:29:54.777Z,50.13
2017-10-04T03:32:22.566Z,49.30
2017-10-04T03:34:50.091Z,40.00
2017-10-04T03:37:17.619Z,42.13
2017-10-04T03:39:45.181Z,36.07
2017-10-04T03:42:12.755Z,42.63
2017-10-04T03:44:40.513Z,42.17
2017-10-04T03:47:08.732Z,43.97
2017-10-04T03:49:36.751Z,52.90
2017-10-04T03:52:04.271Z,43.00
2017-10-04T03:54:32.146Z,42.40
2017-10-04T03:56:59.663Z,44.40
2017-10-04T03:59:27.193Z,45.93
2017-10-04T04:01:55.034Z,56.77
2017-10-04T04:04:22.572Z,40.93
2017-10-04T04:06:50.117Z,48.47
2017-10-04T04:09:17.699Z,58.00
2017-10-04T04:11:45.543Z,44.37
2017-10-04T04:14:13.070Z,49.77
2017-10-04T04:16:40.658Z,41.13
2017-10-04T04:19:08.185Z,43.67
2017-10-04T04:21:35.701Z,39.60
2017-10-04T04:24:03.242Z,31.57
2017-10-04T04:26:30.766Z,39.40
2017-10-04T04:28:58.301Z,44.83
2017-10-04T04:31:25.855Z,46.40
2017-10-04T04:33:53.379Z,43.63
2017-10-04T04:36:20.898Z,47.57
2017-10-04T04:39:00.311Z,41.53
2017-10-04T04:41:27.847Z,52.17
2017-10-04T04:43:55.381Z,51.90
2017-10-04T04:46:22.945Z,60.33
2017-10-04T04:48:50.466Z,61.23
2017-10-04T04:51:17.988Z,48.73
2017-10-04T04:53:45.560Z,51.20
2017-10-04T04:56:13.085Z,51.23
2017-10-04T04:58:40.602Z,53.90
2017-10-04T05:01:08.386Z,49.70
2017-10-04T05:03:35.935Z,52.97
2017-10-04T05:06:03.693Z,50.67
2017-10-04T05:08:31.310Z,65.47
2017-10-04T05:10:58.834Z,55.63
2017-10-04T05:13:26.367Z,57.60
2017-10-04T05:15:54.004Z,55.47
2017-10-04T05:18:21.543Z,55.50
2017-10-04T05:20:49.053Z,45.87
2017-10-04T05:23:16.649Z,45.13
2017-10-04T05:25:44.186Z,44.83
2017-10-04T05:28:11.716Z,44.80
2017-10-04T05:30:39.635Z,41.33
2017-10-04T05:33:07.173Z,41.80
2017-10-04T05:35:34.725Z,37.50
2017-10-04T05:38:02.278Z,31.03
2017-10-04T05:40:29.802Z,33.07
2017-10-04T05:42:57.308Z,38.13
2017-10-04T05:45:24.902Z,31.20
2017-10-04T05:47:52.427Z,32.27
2017-10-04T05:50:19.965Z,28.87
2017-10-04T05:52:47.520Z,27.93
2017-10-04T05:55:15.038Z,36.83
2017-10-04T05:57:42.579Z,29.13
2017-10-04T06:00:10.260Z,31.60
2017-10-04T06:02:37.802Z,32.00
2017-10-04T06:05:05.340Z,28.50
2017-10-04T06:07:32.872Z,33.57
2017-10-04T06:10:00.404Z,44.50
2017-10-04T06:12:28.201Z,28.83
2017-10-04T06:14:56.037Z,38.00
2017-10-04T06:17:23.616Z,34.30
2017-10-04T06:19:51.139Z,37.73
2017-10-04T06:22:18.688Z,35.70
2017-10-04T06:24:46.227Z,33.23
2017-10-04T06:27:13.771Z,35.53
2017-10-04T06:29:41.325Z,31.23
2017-10-04T06:32:08.921Z,34.90
2017-10-04T06:34:36.448Z,30.13
2017-10-04T06:37:04.265Z,41.00
2017-10-04T06:39:31.826Z,42.30
2017-10-04T06:41:59.586Z,38.80
2017-10-04T06:44:27.119Z,43.80
2017-10-04T06:46:54.694Z,42.53
2017-10-04T06:49:22.203Z,40.53
2017-10-04T06:51:49.725Z,39.27
2017-10-04T06:54:17.287Z,34.60
2017-10-04T06:56:44.883Z,40.90
2017-10-04T06:59:12.426Z,33.00
2017-10-04T07:01:39.988Z,30.33
2017-10-04T07:04:07.866Z,31.53
2017-10-04T07:06:35.393Z,29.30
2017-10-04T07:09:02.945Z,36.77
2017-10-04T07:11:31.354Z,27.87
2017-10-04T07:13:58.866Z,32.70
2017-10-04T07:16:26.439Z,30.73
2017-10-04T07:18:54.311Z,41.27
2017-10-04T07:21:21.845Z,27.53
2017-10-04T07:23:49.425Z,40.80
2017-10-04T07:26:16.957Z,31.20
2017-10-04T07:28:44.474Z,34.10
2017-10-04T07:31:12.017Z,32.93
2017-10-04T07:33:39.566Z,29.67
2017-10-04T07:36:07.082Z,29.73
2017-10-04T07:38:34.626Z,31.87
2017-10-04T07:41:02.496Z,31.10
2017-10-04T07:43:30.071Z,30.23
2017-10-04T07:45:57.605Z,37.50
2017-10-04T07:48:25.169Z,35.43
2017-10-04T07:50:52.938Z,39.80
2017-10-04T07:53:21.091Z,33.83
2017-10-04T07:55:48.630Z,40.73
2017-10-04T07:58:16.173Z,36.17
2017-10-04T08:00:43.949Z,35.33
2017-10-04T08:03:11.495Z,33.07
2017-10-04T08:05:39.276Z,35.13
2017-10-04T08:08:06.825Z,29.20
2017-10-04T08:10:34.344Z,32.77
2017-10-04T08:13:02.116Z,33.53
2017-10-04T08:15:29.959Z,32.73
2017-10-04T08:17:57.589Z,33.00
2017-10-04T08:20:25.121Z,28.67
2017-10-04T08:22:52.681Z,31.83
2017-10-04T08:25:20.194Z,28.80
2017-10-04T08:27:47.726Z,29.57
2017-10-04T08:30:15.343Z,27.93
2017-10-04T08:32:42.914Z,32.57
2017-10-04T08:35:10.440Z,32.20
2017-10-04T08:37:38.029Z,32.27
2017-10-04T08:40:05.551Z,32.27
2017-10-04T08:42:33.071Z,27.90
2017-10-04T08:45:00.666Z,31.43
2017-10-04T08:47:40.118Z,26.87
2017-10-04T08:50:08.317Z,38.60
2017-10-04T08:52:35.845Z,32.30
2017-10-04T08:55:03.371Z,32.30
2017-10-04T08:57:30.943Z,33.40
2017-10-04T08:59:58.554Z,23.80
2017-10-04T09:02:26.129Z,20.90
2017-10-04T09:05:05.473Z,22.77
2017-10-04T09:07:33.050Z,24.20
2017-10-04T09:10:00.815Z,19.80
2017-10-04T09:12:28.336Z,22.47
2017-10-04T09:14:55.882Z,24.23
2017-10-04T09:17:23.421Z,18.50
2017-10-04T09:19:50.950Z,18.93
2017-10-04T09:22:18.514Z,22.03
2017-10-04T09:24:46.275Z,20.30
2017-10-04T09:27:13.799Z,18.50
2017-10-04T09:29:41.351Z,15.37
2017-10-04T09:32:08.957Z,16.47
2017-10-04T09:34:36.471Z,16.50
2017-10-04T09:37:04.009Z,17.83
2017-10-04T09:39:31.545Z,17.90
2017-10-04T09:41:59.130Z,17.07
2017-10-04T09:44:26.660Z,16.30
2017-10-04T09:46:54.214Z,16.93
2017-10-04T09:49:21.981Z,25.90
2017-10-04T09:51:49.526Z,20.00
2017-10-04T09:54:17.103Z,18.17
2017-10-04T09:56:44.625Z,16.47
2017-10-04T09:59:12.141Z,17.17
2017-10-04T10:01:39.693Z,16.63
2017-10-04T10:04:07.217Z,20.90
2017-10-04T10:06:34.746Z,17.63
2017-10-04T10:09:02.405Z,16.10
2017-10-04T10:11:29.920Z,26.43
2017-10-04T10:13:57.440Z,19.03
2017-10-04T10:16:25.006Z,13.03
2017-10-04T10:18:52.538Z,18.67
2017-10-04T10:21:20.063Z,13.50
2017-10-04T10:23:47.711Z,12.00
2017-10-04T10:26:17.110Z,13.67
2017-10-04T10:28:45.711Z,12.70
2017-10-04T10:31:13.386Z,11.20
2017-10-04T10:33:40.930Z,12.63
2017-10-04T10:36:08.637Z,17.87
2017-10-04T10:38:36.270Z,11.30
2017-10-04T10:41:04.028Z,12.90
2017-10-04T10:43:32.115Z,11.70
2017-10-04T10:46:00.800Z,12.80
2017-10-04T10:48:29.424Z,19.33
2017-10-04T10:50:57.054Z,12.70
2017-10-04T10:53:25.522Z,9.10
2017-10-04T10:55:53.155Z,9.53
2017-10-04T10:58:21.504Z,7.83
2017-10-04T11:00:49.093Z,7.57
2017-10-04T11:03:17.838Z,7.47
2017-10-04T11:05:45.441Z,8.77
2017-10-04T11:08:13.059Z,8.77
2017-10-04T11:10:40.644Z,10.93
2017-10-04T11:13:08.298Z,11.30
2017-10-04T11:15:35.885Z,11.50
2017-10-04T11:18:03.675Z,9.63
2017-10-04T11:20:31.443Z,8.70
2017-10-04T11:22:59.762Z,12.30
2017-10-04T11:25:27.587Z,13.60
2017-10-04T11:27:56.699Z,12.93
2017-10-04T11:30:24.902Z,13.37
2017-10-04T11:32:52.561Z,9.63
2017-10-04T11:35:20.402Z,11.03
2017-10-04T11:37:48.935Z,11.23
2017-10-04T11:40:17.318Z,9.00
2017-10-04T11:42:46.227Z,8.40
2017-10-04T11:45:13.825Z,10.80
2017-10-04T11:47:41.565Z,16.03
2017-10-04T11:50:09.084Z,8.70
2017-10-04T11:52:36.637Z,9.83
2017-10-04T11:55:04.162Z,7.50
2017-10-04T11:57:31.903Z,9.60
2017-10-04T11:59:59.474Z,7.93
2017-10-04T12:02:27.019Z,8.33
2017-10-04T12:04:54.522Z,6.83
2017-10-04T12:07:22.049Z,16.57
2017-10-04T12:09:49.627Z,7.33
2017-10-04T12:12:17.361Z,9.77
2017-10-04T12:14:44.869Z,7.73
2017-10-04T12:17:12.439Z,7.23
2017-10-04T12:19:40.960Z,8.70
2017-10-04T12:22:08.461Z,7.60
2017-10-04T12:24:36.006Z,5.73
2017-10-04T12:27:03.545Z,7.57
2017-10-04T12:29:31.278Z,6.73
2017-10-04T12:31:59.436Z,8.60
2017-10-04T12:34:27.182Z,7.37
2017-10-04T12:36:55.614Z,7.43
2017-10-04T12:39:36.197Z,6.97
2017-10-04T12:42:12.349Z,9.27
2017-10-04T12:44:40.358Z,7.87
2017-10-04T12:47:08.187Z,8.53
2017-10-04T12:49:35.699Z,6.10
2017-10-04T12:52:03.243Z,6.00
2017-10-04T12:54:30.759Z,7.47
2017-10-04T12:56:58.274Z,8.93
2017-10-04T12:59:25.871Z,8.63
2017-10-04T13:01:54.137Z,6.93
2017-10-04T13:04:21.655Z,5.97
2017-10-04T13:06:50.102Z,6.73
2017-10-04T13:09:17.647Z,6.47
2017-10-04T13:11:45.176Z,10.70
2017-10-04T13:14:12.682Z,10.20
2017-10-04T13:16:40.226Z,8.30
2017-10-04T13:19:07.747Z,9.57
2017-10-04T13:21:35.255Z,6.70
2017-10-04T13:24:03.039Z,6.40
2017-10-04T13:26:30.598Z,13.13
2017-10-04T13:28:58.125Z,12.63
2017-10-04T13:31:25.704Z,6.03
2017-10-04T13:33:53.276Z,6.43
2017-10-04T13:36:21.304Z,10.57
2017-10-04T13:38:48.864Z,7.60
2017-10-04T13:41:16.621Z,6.97
2017-10-04T13:43:44.152Z,7.10
2017-10-04T13:46:11.713Z,9.53
2017-10-04T13:48:39.243Z,7.27
2017-10-04T13:51:07.009Z,12.67
2017-10-04T13:53:34.588Z,6.30
2017-10-04T13:56:02.374Z,7.40
2017-10-04T13:58:29.900Z,11.13
2017-10-04T14:00:57.496Z,6.33
2017-10-04T14:03:25.022Z,8.67
2017-10-04T14:05:52.770Z,8.33
2017-10-04T14:08:20.332Z,10.57
2017-10-04T14:10:49.012Z,7.20
2017-10-04T14:13:16.781Z,6.50
2017-10-04T14:15:44.365Z,7.30
2017-10-04T14:18:11.881Z,6.93
2017-10-04T14:20:39.400Z,6.50
2017-10-04T14:23:07.190Z,9.87
2017-10-04T14:25:35.491Z,7.93
2017-10-04T14:28:03.026Z,12.93
2017-10-04T14:30:31.925Z,8.13
2017-10-04T14:32:59.672Z,10.07
2017-10-04T14:35:27.770Z,13.03
2017-10-04T14:37:55.491Z,6.27
2017-10-04T14:40:23.527Z,6.03
2017-10-04T14:42:51.123Z,9.30
2017-10-04T14:45:19.479Z,6.10
2017-10-04T14:47:47.910Z,8.17
2017-10-04T14:50:15.696Z,6.50
2017-10-04T14:52:43.315Z,7.97
2017-10-04T14:55:10.896Z,10.27
2017-10-04T14:57:38.521Z,9.97
2017-10-04T15:00:06.171Z,9.10
2017-10-04T15:02:33.739Z,8.03
2017-10-04T15:05:01.374Z,10.03
2017-10-04T15:07:29.150Z,8.23
2017-10-04T15:09:56.979Z,7.10
2017-10-04T15:12:25.140Z,8.23
2017-10-04T15:14:53.653Z,10.10
2017-10-04T15:17:21.741Z,5.53
2017-10-04T15:19:50.347Z,6.53
2017-10-04T15:22:17.953Z,6.87
2017-10-04T15:24:45.832Z,7.50
2017-10-04T15:27:13.649Z,8.00
2017-10-04T15:29:41.462Z,8.63
2017-10-04T15:32:09.304Z,7.13
2017-10-04T15:34:36.810Z,6.43
2017-10-04T15:37:04.312Z,9.47
2017-10-04T15:39:31.931Z,6.40
2017-10-04T15:41:59.434Z,8.43
2017-10-04T15:44:28.459Z,6.07
2017-10-04T15:46:56.095Z,9.97
2017-10-04T15:49:23.906Z,6.67
2017-10-04T15:51:51.755Z,4.70
2017-10-04T15:54:19.321Z,9.13
2017-10-04T15:56:46.861Z,12.47
2017-10-04T15:59:14.406Z,8.30
2017-10-04T16:01:41.996Z,7.37
2017-10-04T16:04:09.529Z,11.60
2017-10-04T16:06:37.370Z,9.57
2017-10-04T16:09:04.966Z,12.50
2017-10-04T16:11:32.657Z,12.40
2017-10-04T16:14:00.175Z,13.80
2017-10-04T16:16:27.734Z,11.80
2017-10-04T16:18:56.341Z,9.93
2017-10-04T16:21:23.866Z,10.20
2017-10-04T16:23:51.678Z,11.77
2017-10-04T16:26:19.548Z,13.77
2017-10-04T16:28:47.067Z,10.60
2017-10-04T16:31:15.315Z,9.47
2017-10-04T16:33:43.063Z,9.20
2017-10-04T16:36:10.827Z,8.77
2017-10-04T16:38:38.493Z,8.73
2017-10-04T16:41:06.300Z,9.73
2017-10-04T16:43:33.847Z,12.23
2017-10-04T16:46:01.490Z,15.47
2017-10-04T16:48:29.605Z,13.67
2017-10-04T16:50:57.954Z,15.03
2017-10-04T16:53:25.542Z,14.90
2017-10-04T16:55:53.547Z,10.83
2017-10-04T16:58:21.641Z,11.37
2017-10-04T17:00:50.195Z,10.67
2017-10-04T17:03:18.431Z,10.03
2017-10-04T17:05:45.988Z,16.33
2017-10-04T17:08:14.269Z,10.80
2017-10-04T17:10:42.041Z,16.47
2017-10-04T17:13:09.570Z,12.03
2017-10-04T17:15:37.172Z,14.40
2017-10-04T17:18:04.897Z,11.87
2017-10-04T17:20:32.477Z,15.53
2017-10-04T17:23:00.054Z,14.03
2017-10-04T17:25:28.490Z,18.17
2017-10-04T17:27:56.034Z,14.17
2017-10-04T17:30:23.699Z,14.50
2017-10-04T17:32:51.278Z,14.83
2017-10-04T17:35:18.911Z,15.27
2017-10-04T17:37:46.724Z,12.60
2017-10-04T17:40:15.245Z,13.70
2017-10-04T17:42:43.040Z,17.13
2017-10-04T17:45:10.666Z,17.47
2017-10-04T17:47:38.300Z,16.57
2017-10-04T17:50:06.191Z,14.20
2017-10-04T17:52:33.968Z,15.57
2017-10-04T17:55:01.736Z,20.10
2017-10-04T17:57:30.171Z,13.53
2017-10-04T17:59:58.080Z,12.50
2017-10-04T18:02:25.668Z,10.47
2017-10-04T18:04:53.201Z,13.47
2017-10-04T18:07:20.988Z,10.07
2017-10-04T18:09:49.358Z,12.67
2017-10-04T18:12:17.781Z,13.63
2017-10-04T18:14:45.627Z,12.13
2017-10-04T18:17:14.057Z,13.90
2017-10-04T18:19:41.895Z,14.07
2017-10-04T18:22:09.428Z,12.27
2017-10-04T18:24:36.994Z,13.57
2017-10-04T18:27:04.527Z,15.73
2017-10-04T18:29:32.069Z,14.63
2017-10-04T18:31:59.637Z,12.27
2017-10-04T18:34:27.459Z,14.60
2017-10-04T18:36:55.456Z,13.80
2017-10-04T18:39:23.062Z,19.23
2017-10-04T18:41:50.587Z,20.00
2017-10-04T18:44:18.103Z,33.10
2017-10-04T18:46:45.642Z,23.27
2017-10-04T18:49:18.050Z,25.83
2017-10-04T18:51:45.702Z,27.43
2017-10-04T18:54:13.227Z,34.17
2017-10-04T18:56:43.125Z,37.83
2017-10-04T18:59:10.746Z,38.83
2017-10-04T19:01:38.335Z,41.53
2017-10-04T19:04:05.875Z,31.37
2017-10-04T19:06:33.939Z,23.87
2017-10-04T19:09:01.535Z,25.13
2017-10-04T19:11:29.046Z,24.67
2017-10-04T19:13:56.584Z,25.03
2017-10-04T19:16:24.134Z,28.00
2017-10-04T19:18:53.453Z,32.03
2017-10-04T19:21:20.984Z,26.87
2017-10-04T19:23:48.557Z,23.50
2017-10-04T19:26:16.078Z,26.60
2017-10-04T19:28:43.613Z,27.47
2017-10-04T19:31:11.198Z,27.97
2017-10-04T19:33:38.723Z,26.57
2017-10-04T19:36:06.251Z,26.23
2017-10-04T19:38:33.814Z,27.13
2017-10-04T19:41:01.333Z,25.40
2017-10-04T19:43:28.965Z,30.60
2017-10-04T19:45:57.335Z,35.83
2017-10-04T19:48:25.936Z,35.93
2017-10-04T19:50:53.683Z,26.13
2017-10-04T19:53:21.667Z,21.17
2017-10-04T19:55:49.542Z,31.33
2017-10-04T19:58:17.070Z,24.40
2017-10-04T20:00:44.634Z,24.73
2017-10-04T20:03:13.146Z,24.67
2017-10-04T20:05:40.732Z,22.50
2017-10-04T20:08:08.303Z,29.90
2017-10-04T20:10:35.831Z,45.57
2017-10-04T20:13:03.362Z,32.67
2017-10-04T20:15:31.163Z,38.07
2017-10-04T20:17:58.690Z,36.77
2017-10-04T20:20:26.204Z,22.33
2017-10-04T20:22:53.775Z,19.10
2017-10-04T20:25:21.354Z,22.40
2017-10-04T20:27:49.116Z,17.73
2017-10-04T20:30:16.693Z,22.30
2017-10-04T20:32:44.559Z,23.67
2017-10-04T20:35:12.096Z,31.50
2017-10-04T20:37:39.637Z,32.80
2017-10-04T20:40:07.150Z,37.40
2017-10-04T20:42:34.666Z,30.67
2017-10-04T20:45:02.235Z,27.90
2017-10-04T20:47:29.800Z,26.00
2017-10-04T20:49:57.320Z,29.13
2017-10-04T20:52:24.888Z,35.37
2017-10-04T20:54:52.658Z,26.53
2017-10-04T20:57:20.182Z,36.23
2017-10-04T20:59:47.781Z,36.23
2017-10-04T21:02:15.356Z,26.43
2017-10-04T21:04:42.899Z,30.00
2017-10-04T21:07:10.470Z,36.90
2017-10-04T21:09:38.052Z,29.40
2017-10-04T21:12:05.590Z,23.90
2017-10-04T21:14:33.122Z,19.70
2017-10-04T21:17:00.693Z,26.73
2017-10-04T21:19:28.441Z,28.50
2017-10-04T21:21:55.955Z,32.53
2017-10-04T21:24:23.778Z,31.03
2017-10-04T21:26:51.567Z,34.77
2017-10-04T21:29:19.213Z,40.80
2017-10-04T21:31:46.759Z,39.17
2017-10-04T21:34:15.274Z,31.23
2017-10-04T21:36:43.021Z,31.33
2017-10-04T21:39:10.597Z,30.00
2017-10-04T21:41:38.123Z,32.17
2017-10-04T21:44:05.910Z,33.47
2017-10-04T21:46:33.485Z,37.60
2017-10-04T21:49:01.009Z,41.00
2017-10-04T21:51:28.526Z,32.80
2017-10-04T21:53:56.071Z,35.13
2017-10-04T21:56:23.944Z,35.57
2017-10-04T21:58:51.472Z,47.50
2017-10-04T22:01:19.036Z,48.63
2017-10-04T22:03:46.576Z,38.27
2017-10-04T22:06:14.109Z,49.20
2017-10-04T22:08:41.930Z,40.57
2017-10-04T22:11:09.469Z,32.23
2017-10-04T22:13:37.730Z,44.60
2017-10-04T22:16:05.319Z,40.23
2017-10-04T22:18:32.853Z,35.57
2017-10-04T22:21:00.613Z,47.00
2017-10-04T22:23:28.216Z,37.57
2017-10-04T22:25:55.776Z,38.57
2017-10-04T22:28:23.334Z,35.57
2017-10-04T22:30:50.887Z,43.43
2017-10-04T22:33:18.408Z,43.90
2017-10-04T22:35:46.261Z,48.63
2017-10-04T22:38:13.797Z,34.27
2017-10-04T22:40:41.532Z,29.50
2017-10-04T22:43:09.055Z,31.73
2017-10-04T22:45:36.602Z,32.50
2017-10-04T22:48:04.137Z,45.57
2017-10-04T22:50:31.655Z,51.63
2017-10-04T22:52:59.220Z,43.87
2017-10-04T22:55:26.750Z,41.10
2017-10-04T22:57:54.328Z,44.83
2017-10-04T23:00:21.902Z,41.70
2017-10-04T23:02:50.311Z,44.70
2017-10-04T23:05:18.086Z,44.70
2017-10-04T23:07:45.685Z,38.93
2017-10-04T23:10:13.477Z,44.90
2017-10-04T23:12:41.001Z,40.43
2017-10-04T23:15:08.614Z,46.80
2017-10-04T23:17:36.156Z,47.40
2017-10-04T23:20:04.475Z,38.77
2017-10-04T23:22:32.323Z,45.33
2017-10-04T23:24:59.840Z,45.83
2017-10-04T23:27:27.584Z,43.53
2017-10-04T23:29:55.134Z,45.53
2017-10-04T23:32:22.681Z,49.03
2017-10-04T23:34:50.433Z,48.00
2017-10-04T23:37:17.946Z,43.57
2017-10-04T23:39:45.495Z,46.13
2017-10-04T23:42:13.027Z,44.40
2017-10-04T23:44:40.550Z,39.63
2017-10-04T23:47:08.089Z,41.40
2017-10-04T23:49:35.633Z,40.67
2017-10-04T23:52:03.157Z,42.93
2017-10-04T23:54:30.735Z,39.30
2017-10-04T23:56:58.607Z,43.73
2017-10-04T23:59:26.171Z,42.40
